Portada
METAR-TAF:

METAR-TAF

Aeroports :

Meixad, Iran

latitud: 36-16N, longitud: 059-38E, altitud: 989 m

Observació

L'informe es va fer fa 28 minuts, a les 08:00 UTC
Vent 6 kt del Est
Temperatura 15°C
Humitat 17%
Pressió 1025 hPa
Visibilitat 10 km o més
sense núvols per sota de 1500 mi sense presència de cumulonimbus.

METAR: OIMM 120800Z 10006KT CAVOK 15/M10 Q1024 A3026

Hora: 11:58 (08:28 UTC)

Pronòstic

L'informe es va fer fa 2 hores i 48 minuts, a les 05:40 UTC
Pronòstic vàlid del 12 a les 06 UTC al 13 a les 12 UTC
Vent 8 kt del Sud-Est
Visibilitat 10 km o més
sense núvols per sota de 1500 mi sense presència de cumulonimbus.

TAF: OIMM 120540Z 1206/1312 14008KT CAVOK

Observacions i pronòstics meteorològics de més de 4000 aeroports (METAR i TAF).

Les estacions disponibles són els punts grocs i vermells al mapa.

Posi el ratolí al punt desitjat per veure el nom de l'estació.

Feu clic per veure les observacions i els pronòstics meteorològics.

Per canviar el mapa: feu clic els botons verds amb una creu de color negre per apropar; al botó verd amb un guió per allunyar la imatge; o en les fletxes verdes per a mapes adjacents.


METAR-TAF: